Time;durP1;ratioP1;P1;durP2;ratioP2;P2;SDS_P1;SDS_P2;PMS_P1;PMS_P2;Temp;Humidity;BMP_temperature;BMP_pressure;BME280_temperature;BME280_humidity;BME280_pressure;Samples;Min_cycle;Max_cycle;Signal;HPM_P1;HPM_P2
2021/12/24 00:02:13;;;;;;;53.00;24.53;;;-1.60;99.90;;;;;;5179055;27;20344;-68
2021/12/24 00:04:41;;;;;;;54.33;25.03;;;-1.60;99.90;;;;;;5178470;27;20480;-68
2021/12/24 00:07:07;;;;;;;54.63;24.67;;;-1.60;99.90;;;;;;5178103;27;20532;-68
2021/12/24 00:09:36;;;;;;;51.50;24.40;;;-1.60;99.90;;;;;;5160792;27;20144;-68
2021/12/24 00:12:11;;;;;;;57.83;24.53;;;-1.50;99.90;;;;;;5161562;27;20396;-67
2021/12/24 00:14:42;;;;;;;51.33;23.67;;;-1.60;99.90;;;;;;5180735;27;20115;-68
2021/12/24 00:17:13;;;;;;;59.00;24.50;;;-1.60;99.90;;;;;;5161180;27;20144;-68
2021/12/24 00:19:49;;;;;;;55.57;24.90;;;-1.60;99.90;;;;;;5160790;27;20510;-68
2021/12/24 00:35:53;;;;;;;53.93;24.70;;;-1.50;99.90;;;;;;5162627;27;20168;-68
2021/12/24 00:38:21;;;;;;;56.17;24.67;;;-1.40;99.90;;;;;;5162780;27;20191;-68
2021/12/24 00:40:49;;;;;;;56.73;24.27;;;-1.40;99.90;;;;;;5163026;27;20476;-68
2021/12/24 00:43:17;;;;;;;52.90;23.77;;;-1.40;99.90;;;;;;5161258;27;20234;-68
2021/12/24 00:45:46;;;;;;;51.20;24.07;;;-1.40;99.90;;;;;;5180155;27;20197;-68
2021/12/24 00:48:19;;;;;;;52.67;23.67;;;-1.40;99.90;;;;;;5160178;27;20151;-68
2021/12/24 00:56:10;;;;;;;55.10;24.30;;;-1.50;99.90;;;;;;5180942;27;20160;-68
2021/12/24 00:58:38;;;;;;;52.47;24.57;;;-1.40;99.90;;;;;;5180666;27;20352;-68
2021/12/24 01:01:08;;;;;;;52.47;24.43;;;-1.50;99.90;;;;;;5162270;27;20170;-68
2021/12/24 01:03:36;;;;;;;51.27;23.50;;;-1.40;99.90;;;;;;5179404;27;20408;-68
2021/12/24 01:06:04;;;;;;;53.03;23.90;;;-1.50;99.90;;;;;;5177724;27;20160;-68
2021/12/24 01:08:32;;;;;;;47.97;24.23;;;-1.50;99.90;;;;;;5179215;27;20514;-68
2021/12/24 01:11:05;;;;;;;53.67;24.23;;;-1.50;99.90;;;;;;5161018;27;20446;-68
2021/12/24 01:13:33;;;;;;;54.07;24.73;;;-1.50;99.90;;;;;;5179908;27;20195;-68
2021/12/24 01:16:06;;;;;;;48.83;23.10;;;-1.50;99.90;;;;;;5161860;27;20139;-68
2021/12/24 01:18:48;;;;;;;55.43;24.47;;;-1.50;99.90;;;;;;5161080;27;20364;-67
2021/12/24 01:23:57;;;;;;;58.30;25.00;;;-1.50;99.90;;;;;;5160620;27;20437;-68
2021/12/24 01:29:33;;;;;;;54.30;24.50;;;-1.50;99.90;;;;;;5161067;27;20195;-68
2021/12/24 01:42:59;;;;;;;55.13;23.87;;;-1.50;99.90;;;;;;5161159;27;20400;-68
2021/12/24 01:45:32;;;;;;;52.00;23.97;;;-1.50;99.90;;;;;;5161141;27;20383;-68
2021/12/24 01:48:09;;;;;;;51.20;24.47;;;-1.50;99.90;;;;;;5176179;27;20198;-68
2021/12/24 01:50:39;;;;;;;51.10;24.70;;;-1.50;99.90;;;;;;5161665;27;20190;-68
2021/12/24 01:53:07;;;;;;;51.97;24.10;;;-1.50;99.90;;;;;;5176666;27;20392;-68
2021/12/24 01:55:36;;;;;;;53.70;25.00;;;-1.40;99.90;;;;;;5159224;27;20451;-68
2021/12/24 01:58:03;;;;;;;51.53;25.13;;;-1.40;99.90;;;;;;5177206;27;20144;-68
2021/12/24 02:00:36;;;;;;;52.90;24.17;;;-1.50;99.90;;;;;;5160373;27;20155;-69
2021/12/24 02:03:09;;;;;;;52.43;23.40;;;-1.40;99.90;;;;;;5176278;27;20208;-68
2021/12/24 02:05:38;;;;;;;53.17;23.73;;;-1.50;99.90;;;;;;5177061;27;20132;-68
2021/12/24 02:08:09;;;;;;;51.07;23.80;;;-1.40;99.90;;;;;;5160007;27;20431;-68
2021/12/24 02:10:37;;;;;;;55.33;24.67;;;-1.40;99.90;;;;;;5161179;27;20468;-68
2021/12/24 02:13:06;;;;;;;50.10;23.33;;;-1.40;99.90;;;;;;5160275;27;20147;-68
2021/12/24 02:16:01;;;;;;;55.30;23.57;;;-1.50;99.90;;;;;;5160786;27;20347;-68
2021/12/24 02:28:14;;;;;;;51.10;23.23;;;-1.40;99.90;;;;;;5179827;27;20426;-68
2021/12/24 02:29:41;;;;;;;55.07;24.43;;;-1.50;99.90;;;;;;5177756;27;20424;-68
2021/12/24 02:32:09;;;;;;;53.33;24.77;;;-1.50;99.90;;;;;;5162170;27;20148;-68
2021/12/24 02:34:36;;;;;;;51.13;24.30;;;-1.50;99.90;;;;;;5160466;27;20178;-68
2021/12/24 02:37:03;;;;;;;47.87;23.23;;;-1.50;99.90;;;;;;5162132;27;20435;-67
2021/12/24 02:39:31;;;;;;;52.97;23.63;;;-1.50;99.90;;;;;;5160103;27;20372;-68
2021/12/24 02:42:14;;;;;;;55.03;24.33;;;-1.50;99.90;;;;;;5180885;27;20387;-68
2021/12/24 02:44:42;;;;;;;51.13;23.80;;;-1.50;99.90;;;;;;5177856;27;20165;-68
2021/12/24 02:55:04;;;;;;;49.97;23.47;;;-1.50;99.90;;;;;;5160513;27;20353;-68
2021/12/24 02:57:34;;;;;;;51.23;23.10;;;-1.50;99.90;;;;;;5160370;27;20144;-68
2021/12/24 03:00:14;;;;;;;51.43;23.37;;;-1.50;99.90;;;;;;5159815;27;20494;-68
2021/12/24 03:02:46;;;;;;;55.30;24.10;;;-1.40;99.90;;;;;;5160730;27;20145;-68
2021/12/24 03:05:16;;;;;;;53.60;23.90;;;-1.30;99.90;;;;;;5161622;27;20143;-68
2021/12/24 03:07:43;;;;;;;50.30;22.83;;;-1.30;99.90;;;;;;5177688;27;20158;-68
2021/12/24 03:10:17;;;;;;;52.13;24.13;;;-1.30;99.90;;;;;;5160365;27;20604;-68
2021/12/24 03:12:46;;;;;;;49.90;23.40;;;-1.30;99.90;;;;;;5176872;27;20140;-68
2021/12/24 03:15:15;;;;;;;47.37;23.17;;;-1.30;99.90;;;;;;5161148;27;20458;-68
2021/12/24 03:17:48;;;;;;;48.47;23.00;;;-1.30;99.90;;;;;;5162169;27;20398;-68
2021/12/24 03:20:16;;;;;;;50.10;23.50;;;-1.30;99.90;;;;;;5179023;27;20353;-68
2021/12/24 03:23:07;;;;;;;47.03;22.10;;;-1.20;99.90;;;;;;5160993;27;20544;-68
2021/12/24 03:25:34;;;;;;;51.23;22.23;;;-1.20;99.90;;;;;;5178953;27;20215;-67
2021/12/24 03:28:02;;;;;;;52.63;23.20;;;-1.30;99.90;;;;;;5179438;27;20152;-67
2021/12/24 03:30:29;;;;;;;53.30;23.77;;;-1.20;99.90;;;;;;5181188;27;20402;-68
2021/12/24 03:32:57;;;;;;;48.87;23.70;;;-1.20;99.90;;;;;;5160099;27;20520;-68
2021/12/24 03:35:24;;;;;;;53.17;24.37;;;-1.20;99.90;;;;;;5177264;27;20608;-68
2021/12/24 03:37:52;;;;;;;51.90;23.60;;;-1.20;99.90;;;;;;5177387;27;20362;-68
2021/12/24 03:40:19;;;;;;;48.93;23.17;;;-1.20;99.90;;;;;;5160230;27;20162;-68
2021/12/24 03:42:46;;;;;;;50.07;23.37;;;-1.20;99.90;;;;;;5179854;27;20166;-67
2021/12/24 03:45:33;;;;;;;52.33;23.00;;;-1.20;99.90;;;;;;5161102;27;20557;-68
2021/12/24 03:48:02;;;;;;;47.87;22.43;;;-1.20;99.90;;;;;;5160891;27;20181;-68
2021/12/24 03:56:01;;;;;;;50.93;23.00;;;-1.10;99.90;;;;;;5178345;27;20494;-67
2021/12/24 03:58:29;;;;;;;48.20;22.87;;;-1.10;99.90;;;;;;5161559;27;20373;-68
2021/12/24 04:00:57;;;;;;;47.50;21.50;;;-1.10;99.90;;;;;;5181217;27;20190;-67
2021/12/24 04:03:24;;;;;;;52.00;23.27;;;-1.20;99.90;;;;;;5163207;27;20151;-68
2021/12/24 04:05:51;;;;;;;49.03;22.80;;;-1.20;99.90;;;;;;5162078;27;20510;-68
2021/12/24 04:08:19;;;;;;;49.67;22.17;;;-1.10;99.90;;;;;;5163117;27;20174;-68
2021/12/24 04:10:46;;;;;;;48.80;23.23;;;-1.10;99.90;;;;;;5181946;27;20147;-68
2021/12/24 04:13:14;;;;;;;44.83;22.20;;;-1.10;99.90;;;;;;5180351;27;20170;-68
2021/12/24 04:15:42;;;;;;;46.60;21.80;;;-1.00;99.90;;;;;;5178487;27;20477;-68
2021/12/24 04:18:23;;;;;;;47.10;22.17;;;-1.10;99.90;;;;;;5161013;27;20148;-67
2021/12/24 04:26:23;;;;;;;47.83;22.23;;;-1.00;99.90;;;;;;5160868;27;20541;-68
2021/12/24 04:28:53;;;;;;;46.13;22.03;;;-1.00;99.90;;;;;;5179121;27;20151;-68
2021/12/24 04:31:27;;;;;;;44.13;22.03;;;-1.00;99.90;;;;;;5161201;27;20418;-68
2021/12/24 04:33:59;;;;;;;45.23;21.67;;;-1.00;99.90;;;;;;5162863;27;20488;-68
2021/12/24 05:01:12;;;;;;;43.67;21.67;;;-1.10;99.90;;;;;;5177837;27;20556;-68
2021/12/24 05:01:27;;;;;;;49.00;23.63;;;-1.10;99.90;;;;;;5161858;27;20494;-68
2021/12/24 05:03:57;;;;;;;46.97;21.37;;;-1.10;99.90;;;;;;5162268;27;20147;-67
2021/12/24 05:11:20;;;;;;;48.03;22.97;;;-1.00;99.90;;;;;;5181833;27;20388;-68
2021/12/24 05:13:50;;;;;;;47.30;22.17;;;-1.00;99.90;;;;;;5181824;27;20123;-68
2021/12/24 05:16:26;;;;;;;51.23;23.00;;;-1.00;99.90;;;;;;5179470;27;20548;-67
2021/12/24 05:21:33;;;;;;;47.00;22.10;;;-1.00;99.90;;;;;;5179959;27;20159;-67
2021/12/24 05:21:54;;;;;;;49.03;23.23;;;-1.00;99.90;;;;;;5161049;27;20395;-68
2021/12/24 05:24:26;;;;;;;50.73;23.10;;;-1.00;99.90;;;;;;5161529;27;20207;-68
2021/12/24 05:26:58;;;;;;;50.50;23.40;;;-1.00;99.90;;;;;;5180329;27;20412;-68
2021/12/24 05:29:25;;;;;;;49.00;22.33;;;-1.00;99.90;;;;;;5160446;27;20532;-68
2021/12/24 05:31:53;;;;;;;48.20;22.27;;;-0.90;99.90;;;;;;5179823;27;20361;-68
2021/12/24 05:34:21;;;;;;;47.87;22.63;;;-0.90;99.90;;;;;;5179895;27;20431;-68
2021/12/24 05:36:49;;;;;;;51.00;23.50;;;-0.90;99.90;;;;;;5161437;27;20547;-68
2021/12/24 05:39:18;;;;;;;47.80;22.00;;;-0.90;99.90;;;;;;5181127;27;20435;-68
2021/12/24 05:41:46;;;;;;;48.03;22.87;;;-0.90;99.90;;;;;;5160996;27;20187;-68
2021/12/24 05:44:16;;;;;;;52.83;23.20;;;-0.90;99.90;;;;;;5179898;27;20540;-67
2021/12/24 05:46:45;;;;;;;49.23;21.87;;;-0.90;99.90;;;;;;5161428;27;20493;-68
2021/12/24 05:49:13;;;;;;;52.03;23.23;;;-0.90;99.90;;;;;;5162510;27;20549;-68
2021/12/24 05:51:41;;;;;;;46.10;23.27;;;-0.90;99.90;;;;;;5179590;27;20446;-67
2021/12/24 05:54:09;;;;;;;45.47;22.43;;;-0.80;99.90;;;;;;5161343;27;20510;-68
2021/12/24 05:56:37;;;;;;;47.77;22.40;;;-0.80;99.90;;;;;;5181497;27;20186;-68
2021/12/24 05:59:05;;;;;;;46.73;23.10;;;-0.80;99.90;;;;;;5179927;27;20382;-68
2021/12/24 06:01:32;;;;;;;47.67;22.23;;;-0.80;99.90;;;;;;5179318;27;20124;-68
2021/12/24 06:04:00;;;;;;;51.33;23.40;;;-0.80;99.90;;;;;;5161959;27;20533;-67
2021/12/24 06:06:28;;;;;;;47.40;22.73;;;-0.80;99.90;;;;;;5178916;27;20159;-68
2021/12/24 06:08:55;;;;;;;46.47;23.33;;;-0.80;99.90;;;;;;5177975;27;20158;-68
2021/12/24 06:11:23;;;;;;;46.73;23.77;;;-0.80;99.90;;;;;;5179832;27;20476;-68
2021/12/24 06:13:54;;;;;;;48.20;22.80;;;-0.80;99.90;;;;;;5160491;27;20155;-68
2021/12/24 06:16:21;;;;;;;48.00;22.67;;;-0.80;99.90;;;;;;5179353;27;20104;-68
2021/12/24 06:18:49;;;;;;;46.37;22.93;;;-0.70;99.90;;;;;;5181556;27;20172;-67
2021/12/24 06:21:17;;;;;;;47.70;22.87;;;-0.70;99.90;;;;;;5179720;27;20219;-68
2021/12/24 06:23:47;;;;;;;45.37;22.20;;;-0.70;99.90;;;;;;5179014;27;20187;-68
2021/12/24 06:26:15;;;;;;;51.63;23.17;;;-0.70;99.90;;;;;;5179050;27;20516;-68
2021/12/24 06:28:42;;;;;;;52.37;23.23;;;-0.70;99.90;;;;;;5161879;27;20486;-68
2021/12/24 06:31:10;;;;;;;50.80;23.07;;;-0.70;99.90;;;;;;5180649;27;20429;-68
2021/12/24 06:33:38;;;;;;;47.30;23.10;;;-0.70;99.90;;;;;;5160808;27;20537;-68
2021/12/24 06:36:06;;;;;;;48.60;23.93;;;-0.70;99.90;;;;;;5161716;27;20506;-68
2021/12/24 06:38:34;;;;;;;51.23;23.40;;;-0.60;99.90;;;;;;5181098;27;20124;-68
2021/12/24 06:41:02;;;;;;;49.37;23.57;;;-0.60;99.90;;;;;;5178569;27;20497;-68
2021/12/24 06:43:29;;;;;;;52.00;24.43;;;-0.60;99.90;;;;;;5162540;27;20170;-68
2021/12/24 06:45:59;;;;;;;49.00;23.07;;;-0.60;99.90;;;;;;5180342;27;20486;-68
2021/12/24 06:48:26;;;;;;;46.10;22.67;;;-0.60;99.90;;;;;;5178423;27;20512;-68
2021/12/24 06:50:54;;;;;;;52.20;23.87;;;-0.60;99.90;;;;;;5179377;27;20386;-68
2021/12/24 06:53:21;;;;;;;49.57;23.37;;;-0.60;99.90;;;;;;5177771;27;20151;-68
2021/12/24 06:55:49;;;;;;;49.77;23.57;;;-0.50;99.90;;;;;;5159772;27;20185;-68
2021/12/24 06:58:16;;;;;;;44.10;22.00;;;-0.50;99.90;;;;;;5180087;27;20495;-68
2021/12/24 07:00:44;;;;;;;49.27;22.90;;;-0.50;99.90;;;;;;5177721;27;20172;-68
2021/12/24 07:03:11;;;;;;;51.37;23.80;;;-0.50;99.90;;;;;;5178495;27;20132;-68
2021/12/24 07:05:39;;;;;;;51.17;23.37;;;-0.50;99.90;;;;;;5178358;27;20494;-68
2021/12/24 07:08:06;;;;;;;47.30;22.87;;;-0.50;99.90;;;;;;5178553;27;20127;-68
2021/12/24 07:10:34;;;;;;;50.70;23.93;;;-0.40;99.90;;;;;;5177248;27;20136;-68
2021/12/24 07:13:01;;;;;;;49.27;22.93;;;-0.40;99.90;;;;;;5159232;27;20540;-68
2021/12/24 07:15:29;;;;;;;47.83;24.43;;;-0.40;99.90;;;;;;5179825;27;20442;-68
2021/12/24 07:17:56;;;;;;;46.80;23.93;;;-0.40;99.90;;;;;;5177891;27;20139;-67
2021/12/24 07:20:23;;;;;;;48.10;23.60;;;-0.30;99.90;;;;;;5180734;27;20450;-68
2021/12/24 07:22:54;;;;;;;46.20;22.63;;;-0.30;99.90;;;;;;5180749;27;20171;-68
2021/12/24 07:25:22;;;;;;;51.43;24.00;;;-0.30;99.90;;;;;;5160692;27;20377;-68
2021/12/24 07:27:50;;;;;;;53.87;23.77;;;-0.30;99.90;;;;;;5177909;27;20144;-67
2021/12/24 07:30:18;;;;;;;45.30;23.40;;;-0.30;99.90;;;;;;5161505;27;20167;-68
2021/12/24 07:32:46;;;;;;;47.97;23.00;;;-0.30;99.90;;;;;;5159950;27;20139;-68
2021/12/24 07:35:14;;;;;;;50.33;24.13;;;-0.30;99.90;;;;;;5161065;27;20524;-68
2021/12/24 07:37:42;;;;;;;47.23;23.30;;;-0.30;99.90;;;;;;5180932;27;20162;-68
2021/12/24 07:40:14;;;;;;;54.67;25.23;;;-0.20;99.90;;;;;;5180085;27;20127;-68
2021/12/24 07:42:43;;;;;;;49.47;24.00;;;-0.20;99.90;;;;;;5179792;27;20147;-68
2021/12/24 07:45:11;;;;;;;52.10;24.60;;;-0.20;99.90;;;;;;5178663;27;20218;-68
2021/12/24 07:47:42;;;;;;;51.33;24.30;;;-0.20;99.90;;;;;;5181888;27;20123;-68
2021/12/24 07:51:55;;;;;;;48.13;23.70;;;-0.10;99.90;;;;;;5160401;27;20148;-68
2021/12/24 07:53:05;;;;;;;51.27;24.93;;;-0.10;99.90;;;;;;5177681;27;20168;-69
2021/12/24 07:55:33;;;;;;;49.60;23.90;;;-0.10;99.90;;;;;;5179826;27;20198;-68
2021/12/24 07:58:01;;;;;;;51.33;24.47;;;0.00;99.90;;;;;;5178476;27;20159;-68
2021/12/24 08:00:29;;;;;;;48.77;23.17;;;0.00;99.90;;;;;;5179570;27;20454;-68
2021/12/24 08:03:03;;;;;;;48.37;23.70;;;0.00;99.90;;;;;;5177657;27;20187;-68
2021/12/24 08:05:34;;;;;;;46.13;23.20;;;0.00;99.90;;;;;;5177508;27;20159;-68
2021/12/24 08:08:15;;;;;;;49.23;24.17;;;0.10;99.90;;;;;;5177710;27;20392;-68
2021/12/24 08:10:46;;;;;;;49.33;24.33;;;0.10;99.90;;;;;;5160762;27;20144;-67
2021/12/24 08:13:14;;;;;;;53.83;23.03;;;0.10;99.90;;;;;;5179655;27;20369;-67
2021/12/24 08:15:49;;;;;;;54.97;24.70;;;0.10;99.90;;;;;;5162416;27;20135;-68
2021/12/24 08:18:23;;;;;;;49.27;23.20;;;0.10;99.90;;;;;;5162520;27;20174;-67
2021/12/24 08:20:56;;;;;;;50.10;23.23;;;0.10;99.90;;;;;;5162707;27;20486;-67
2021/12/24 08:23:27;;;;;;;48.47;23.30;;;0.20;99.90;;;;;;5160908;27;20258;-68
2021/12/24 08:25:58;;;;;;;46.83;23.30;;;0.20;99.90;;;;;;5160312;27;20537;-68
2021/12/24 08:28:27;;;;;;;49.47;24.17;;;0.20;99.90;;;;;;5180001;27;20466;-68
2021/12/24 08:30:56;;;;;;;53.53;24.93;;;0.20;99.90;;;;;;5177825;27;20147;-67
2021/12/24 08:33:30;;;;;;;55.20;24.90;;;0.20;99.90;;;;;;5160909;27;20563;-68
2021/12/24 08:36:06;;;;;;;49.87;23.93;;;0.30;99.90;;;;;;5161608;27;20156;-67
2021/12/24 08:38:39;;;;;;;46.27;22.93;;;0.30;99.90;;;;;;5177796;27;20153;-68
2021/12/24 08:41:07;;;;;;;47.73;23.67;;;0.40;99.90;;;;;;5161438;27;20143;-68
2021/12/24 08:43:41;;;;;;;44.83;21.90;;;0.40;99.90;;;;;;5180874;27;20132;-68
2021/12/24 08:46:15;;;;;;;48.07;22.37;;;0.40;99.90;;;;;;5178195;27;20388;-68
2021/12/24 08:48:43;;;;;;;47.00;22.80;;;0.50;99.90;;;;;;5177938;27;20150;-67
2021/12/24 08:51:11;;;;;;;46.10;21.97;;;0.40;99.90;;;;;;5160947;27;20179;-69
2021/12/24 08:53:39;;;;;;;45.43;21.67;;;0.50;99.90;;;;;;5179472;27;20116;-68
2021/12/24 08:56:09;;;;;;;46.90;22.63;;;0.50;99.90;;;;;;5177950;27;20171;-67
2021/12/24 08:58:40;;;;;;;48.63;23.23;;;0.50;99.90;;;;;;5181148;27;20120;-68
2021/12/24 09:01:13;;;;;;;47.47;22.70;;;0.50;99.90;;;;;;5161046;27;20182;-68
2021/12/24 09:03:46;;;;;;;48.37;21.40;;;0.50;99.90;;;;;;5180238;27;20112;-68
2021/12/24 09:06:13;;;;;;;49.53;22.83;;;0.60;99.90;;;;;;5179564;27;20152;-68
2021/12/24 09:08:44;;;;;;;47.90;22.50;;;0.50;99.90;;;;;;5161291;27;20186;-68
2021/12/24 09:11:12;;;;;;;47.83;22.67;;;0.50;99.90;;;;;;5180232;27;20469;-68
2021/12/24 09:13:40;;;;;;;44.80;21.80;;;0.60;99.90;;;;;;5179189;27;20107;-68
2021/12/24 09:16:11;;;;;;;51.43;22.83;;;0.60;99.90;;;;;;5177969;27;20221;-68
2021/12/24 09:18:41;;;;;;;48.27;23.67;;;0.60;99.90;;;;;;5161898;27;20517;-68
2021/12/24 09:21:15;;;;;;;45.63;22.23;;;0.60;99.90;;;;;;5162368;27;20152;-68
2021/12/24 09:23:57;;;;;;;49.53;22.60;;;0.60;99.90;;;;;;5176946;27;20193;-68
2021/12/24 09:26:36;;;;;;;49.00;23.37;;;0.70;99.90;;;;;;5180231;27;20139;-68
2021/12/24 09:29:30;;;;;;;47.43;22.73;;;0.70;99.90;;;;;;5178988;27;20497;-68
2021/12/24 09:32:10;;;;;;;49.73;23.17;;;0.60;99.90;;;;;;5162313;27;20441;-68
2021/12/24 09:34:38;;;;;;;47.07;22.30;;;0.70;99.90;;;;;;5177997;27;20456;-68
2021/12/24 09:37:07;;;;;;;46.70;22.63;;;0.70;99.90;;;;;;5177682;27;20152;-68
2021/12/24 09:39:39;;;;;;;47.00;22.47;;;0.70;99.90;;;;;;5180072;27;20545;-68
2021/12/24 09:42:10;;;;;;;46.27;23.17;;;0.80;99.90;;;;;;5162417;27;20131;-68
2021/12/24 09:44:40;;;;;;;46.43;22.27;;;0.80;99.90;;;;;;5159274;27;20246;-68
2021/12/24 09:47:17;;;;;;;44.37;22.23;;;0.80;99.90;;;;;;5178177;27;20227;-67
2021/12/24 09:49:54;;;;;;;44.00;21.20;;;0.80;99.90;;;;;;5160850;27;20142;-67
2021/12/24 09:52:32;;;;;;;45.17;21.37;;;0.80;99.90;;;;;;5161909;27;20221;-68
2021/12/24 09:55:14;;;;;;;42.43;21.20;;;0.90;99.90;;;;;;5179807;27;20147;-67
2021/12/24 09:57:57;;;;;;;42.17;20.47;;;0.90;99.90;;;;;;5177389;27;20155;-68
2021/12/24 10:00:31;;;;;;;43.63;21.73;;;0.90;99.90;;;;;;5159960;27;20194;-67
2021/12/24 10:03:36;;;;;;;42.43;20.93;;;0.90;99.90;;;;;;5160789;27;20218;-68
2021/12/24 10:06:08;;;;;;;43.03;20.20;;;0.90;99.90;;;;;;5160776;27;20143;-68
2021/12/24 10:08:37;;;;;;;40.17;20.70;;;0.90;99.90;;;;;;5179085;27;20159;-68
2021/12/24 10:11:11;;;;;;;41.70;21.17;;;0.90;99.90;;;;;;5179705;27;20441;-67
2021/12/24 10:13:46;;;;;;;42.93;21.47;;;0.80;99.90;;;;;;5179319;27;20112;-68
2021/12/24 10:16:30;;;;;;;46.70;22.00;;;0.80;99.90;;;;;;5178679;27;20132;-68
2021/12/24 10:19:13;;;;;;;46.37;22.20;;;0.80;99.90;;;;;;5159954;27;20387;-68
2021/12/24 10:22:03;;;;;;;43.97;21.07;;;0.90;99.90;;;;;;5157884;27;20423;-68
2021/12/24 10:24:34;;;;;;;42.53;20.90;;;0.90;99.90;;;;;;5169742;27;20151;-68
2021/12/24 10:27:19;;;;;;;48.17;21.27;;;0.90;99.90;;;;;;5162135;27;20196;-68
2021/12/24 10:30:31;;;;;;;48.10;22.20;;;0.90;99.90;;;;;;5180265;27;20174;-68
2021/12/24 10:33:20;;;;;;;46.73;22.00;;;0.80;99.90;;;;;;5161053;27;20162;-68
2021/12/24 10:36:07;;;;;;;50.63;22.87;;;0.80;99.90;;;;;;5177240;27;20156;-68
2021/12/24 10:39:13;;;;;;;50.17;23.07;;;0.90;99.90;;;;;;5178003;27;20155;-68
2021/12/24 10:42:14;;;;;;;48.87;22.77;;;0.90;99.90;;;;;;5178024;27;20164;-68
2021/12/24 10:44:48;;;;;;;57.47;23.57;;;0.80;99.90;;;;;;5177607;27;20410;-68
2021/12/24 10:47:26;;;;;;;50.00;24.00;;;0.90;99.90;;;;;;5160313;27;20524;-68
2021/12/24 10:50:33;;;;;;;49.60;22.70;;;0.80;99.90;;;;;;5160293;27;20154;-68
2021/12/24 10:54:01;;;;;;;47.90;21.30;;;0.90;99.90;;;;;;5178562;27;20193;-68
2021/12/24 11:00:48;;;;;;;48.17;22.07;;;0.90;99.90;;;;;;5160031;27;20156;-68
2021/12/24 11:03:34;;;;;;;49.60;22.30;;;0.90;99.90;;;;;;5157470;27;20152;-67
2021/12/24 11:06:09;;;;;;;53.23;23.17;;;0.90;99.90;;;;;;5176133;27;20186;-67
2021/12/24 11:08:45;;;;;;;50.40;23.63;;;0.90;99.90;;;;;;5159053;27;20428;-68
2021/12/24 11:11:20;;;;;;;50.17;22.63;;;0.90;99.90;;;;;;5176522;27;20185;-68
2021/12/24 11:13:52;;;;;;;53.23;24.37;;;0.90;99.90;;;;;;5158390;27;20159;-68
2021/12/24 11:16:34;;;;;;;51.27;23.57;;;0.90;99.90;;;;;;5158440;27;20135;-68
2021/12/24 11:19:20;;;;;;;53.20;23.80;;;1.00;99.90;;;;;;5175898;27;20182;-67
2021/12/24 11:22:11;;;;;;;50.47;24.63;;;1.10;99.90;;;;;;5158062;27;20168;-67
2021/12/24 11:24:41;;;;;;;49.87;22.23;;;1.20;99.90;;;;;;5158643;27;20191;-67
2021/12/24 11:27:10;;;;;;;48.30;22.20;;;1.10;99.90;;;;;;5160019;27;20191;-68
2021/12/24 11:29:40;;;;;;;50.80;23.27;;;1.10;99.90;;;;;;5177164;27;20154;-68
2021/12/24 11:32:11;;;;;;;48.13;21.33;;;1.00;99.90;;;;;;5177821;27;20116;-67
2021/12/24 11:34:43;;;;;;;48.67;22.27;;;1.00;99.90;;;;;;5158941;27;20144;-67
2021/12/24 11:37:14;;;;;;;45.90;21.60;;;1.10;99.90;;;;;;5177336;27;20547;-67
2021/12/24 11:39:44;;;;;;;46.63;21.03;;;1.10;99.90;;;;;;5177301;27;20189;-67
2021/12/24 11:42:16;;;;;;;46.07;20.90;;;1.00;99.90;;;;;;5160131;27;20508;-67
2021/12/24 11:44:48;;;;;;;42.17;20.17;;;1.00;99.90;;;;;;5159611;27;20175;-68
2021/12/24 11:47:18;;;;;;;45.20;21.47;;;1.10;99.90;;;;;;5160478;27;20167;-67
2021/12/24 11:49:46;;;;;;;43.93;20.30;;;1.10;99.90;;;;;;5159313;27;20151;-67
2021/12/24 11:52:16;;;;;;;45.87;21.07;;;1.10;99.90;;;;;;5177908;27;20155;-68
2021/12/24 11:54:50;;;;;;;40.93;20.37;;;1.10;99.90;;;;;;5176723;27;20514;-67
2021/12/24 11:57:23;;;;;;;39.73;19.10;;;1.10;99.90;;;;;;5160165;27;20178;-67
2021/12/24 11:59:54;;;;;;;42.03;20.40;;;1.20;99.90;;;;;;5178795;27;20120;-67
2021/12/24 12:02:41;;;;;;;37.77;19.50;;;1.20;99.90;;;;;;5177050;27;20355;-67
2021/12/24 12:05:42;;;;;;;39.60;19.03;;;1.20;99.90;;;;;;5159529;27;20203;-68
2021/12/24 12:08:25;;;;;;;36.57;18.87;;;1.20;99.90;;;;;;5178860;27;20116;-67
2021/12/24 12:10:59;;;;;;;36.47;18.57;;;1.10;99.90;;;;;;5162254;27;20197;-67
2021/12/24 12:13:56;;;;;;;37.90;18.83;;;1.20;99.90;;;;;;5180059;27;20186;-68
2021/12/24 12:16:38;;;;;;;37.27;18.20;;;1.20;99.90;;;;;;5135371;28;20155;-67
2021/12/24 12:22:13;;;;;;;38.00;18.10;;;1.10;99.90;;;;;;5118135;28;20194;-67
2021/12/24 12:27:26;;;;;;;38.10;19.10;;;1.20;99.90;;;;;;5119596;28;20301;-67
2021/12/24 12:29:54;;;;;;;37.43;18.63;;;1.20;99.90;;;;;;5135866;28;20144;-68
2021/12/24 12:32:23;;;;;;;36.13;19.40;;;1.10;99.90;;;;;;5119020;28;20271;-67
2021/12/24 12:34:57;;;;;;;35.77;18.23;;;1.10;99.90;;;;;;5118964;28;20148;-67
2021/12/24 12:37:41;;;;;;;35.80;18.30;;;1.10;99.90;;;;;;5117625;28;20155;-67
2021/12/24 12:40:17;;;;;;;36.37;18.47;;;1.00;99.90;;;;;;5136541;28;20492;-67
2021/12/24 12:45:44;;;;;;;36.50;18.80;;;1.10;99.90;;;;;;5118324;28;20500;-67
2021/12/24 12:48:16;;;;;;;40.23;19.77;;;1.10;99.90;;;;;;5117686;28;20145;-67
2021/12/24 12:51:00;;;;;;;35.43;19.00;;;1.10;99.90;;;;;;5120021;28;20148;-67
2021/12/24 12:53:29;;;;;;;35.47;17.77;;;1.10;99.90;;;;;;5140679;27;20162;-67
2021/12/24 12:56:27;;;;;;;40.73;18.70;;;1.10;99.90;;;;;;5177726;27;20247;-67
2021/12/24 12:59:07;;;;;;;40.67;19.77;;;1.00;99.90;;;;;;5116994;28;20172;-67
2021/12/24 13:01:52;;;;;;;36.90;19.17;;;1.00;99.90;;;;;;5115274;28;20152;-67
2021/12/24 13:04:19;;;;;;;41.30;19.50;;;1.00;99.90;;;;;;5097185;28;20515;-67
2021/12/24 13:06:51;;;;;;;45.47;20.63;;;1.00;99.90;;;;;;5116455;28;20148;-67
2021/12/24 13:09:23;;;;;;;41.77;20.40;;;1.00;99.90;;;;;;5114742;28;20172;-66
2021/12/24 13:11:52;;;;;;;47.87;22.40;;;1.00;99.90;;;;;;5099517;28;20150;-67
2021/12/24 13:14:22;;;;;;;46.23;21.43;;;1.00;99.90;;;;;;5097103;28;20168;-67
2021/12/24 13:17:17;;;;;;;45.83;21.63;;;1.00;99.90;;;;;;5098763;28;20180;-67
2021/12/24 13:22:29;;;;;;;44.13;21.70;;;1.10;99.90;;;;;;5099023;28;20137;-67
2021/12/24 13:25:14;;;;;;;48.97;22.27;;;1.10;99.90;;;;;;5114326;28;20206;-67
2021/12/24 13:27:48;;;;;;;41.50;20.97;;;1.10;99.90;;;;;;5114777;28;20101;-67
2021/12/24 13:30:17;;;;;;;51.77;22.30;;;1.00;99.90;;;;;;5116641;28;20143;-67
2021/12/24 13:32:51;;;;;;;49.63;22.40;;;1.00;99.90;;;;;;5099364;28;20182;-66
2021/12/24 13:35:21;;;;;;;49.37;21.93;;;0.90;99.90;;;;;;5129075;27;20181;-67
2021/12/24 13:37:48;;;;;;;49.20;23.10;;;0.90;99.90;;;;;;5161968;27;20143;-66
2021/12/24 13:40:20;;;;;;;44.90;21.53;;;0.90;99.90;;;;;;5179450;27;20116;-64
2021/12/24 13:43:02;;;;;;;48.17;22.70;;;0.90;99.90;;;;;;5162166;27;20151;-65
2021/12/24 13:45:33;;;;;;;52.33;22.47;;;0.90;99.90;;;;;;5178999;27;20380;-64
2021/12/24 13:48:08;;;;;;;50.03;22.40;;;0.90;99.90;;;;;;5159410;27;20560;-63
2021/12/24 13:56:36;;;;;;;47.50;22.20;;;0.90;99.90;;;;;;5181168;27;20151;-66
2021/12/24 13:59:04;;;;;;;45.87;22.17;;;0.90;99.90;;;;;;5179698;27;20203;-65
2021/12/24 14:01:32;;;;;;;50.17;23.83;;;0.90;99.90;;;;;;5162583;27;20144;-65
2021/12/24 14:04:02;;;;;;;57.90;24.37;;;0.90;99.90;;;;;;5178994;27;20419;-64
2021/12/24 14:06:34;;;;;;;48.73;23.30;;;0.80;99.90;;;;;;5153453;27;20389;-65
2021/12/24 14:09:18;;;;;;;50.97;23.90;;;0.80;99.90;;;;;;5176729;27;20147;-64
2021/12/24 14:11:48;;;;;;;57.30;24.20;;;0.90;99.90;;;;;;5161889;27;20163;-64
2021/12/24 14:14:27;;;;;;;57.27;23.90;;;0.90;99.90;;;;;;5159526;27;20143;-64
2021/12/24 14:20:06;;;;;;;49.77;22.63;;;0.90;99.90;;;;;;5155500;27;20135;-64
2021/12/24 14:22:34;;;;;;;47.90;22.53;;;0.90;99.90;;;;;;5169701;27;20211;-66
2021/12/24 14:25:10;;;;;;;53.97;23.67;;;0.90;99.90;;;;;;5161486;27;20144;-64
2021/12/24 14:27:39;;;;;;;54.60;23.70;;;0.90;99.90;;;;;;5161791;27;20509;-64
2021/12/24 14:30:15;;;;;;;49.13;22.53;;;0.90;99.90;;;;;;5176704;27;20175;-65
2021/12/24 14:32:44;;;;;;;53.97;23.43;;;0.90;99.90;;;;;;5159576;27;20148;-64
2021/12/24 14:35:15;;;;;;;51.30;22.83;;;0.80;99.90;;;;;;5160824;27;20191;-64
2021/12/24 14:37:59;;;;;;;48.97;21.43;;;0.80;99.90;;;;;;5159429;27;20178;-64
2021/12/24 14:40:28;;;;;;;47.37;21.33;;;0.80;99.90;;;;;;5159478;27;20154;-64
2021/12/24 14:42:55;;;;;;;47.53;22.70;;;0.80;99.90;;;;;;5160566;27;20419;-64
2021/12/24 14:45:39;;;;;;;50.13;22.80;;;0.90;99.90;;;;;;5161889;27;20147;-65
2021/12/24 14:48:12;;;;;;;45.57;20.57;;;0.80;99.90;;;;;;5161220;27;20135;-65
2021/12/24 14:50:46;;;;;;;41.93;20.10;;;0.90;99.90;;;;;;5177230;27;20381;-64
2021/12/24 14:53:16;;;;;;;46.27;21.43;;;0.90;99.90;;;;;;5179914;27;20515;-65
2021/12/24 14:55:52;;;;;;;45.97;20.30;;;0.90;99.90;;;;;;5161780;27;20187;-64